»·PEaware :: WAT306 KSNA-KLXV

WAT306 :: KSNA-KLXV

FLIGHT INFORMATION

Flight Status: Arrived
Operator:
Walker Air Transport
More flights by this operator :: More flights under this callsign
Pilot: Ethan S. (29221)
Aircraft: DASSAULT AVIATION FALCON 50
(FA50)
More flights by this aircraft type
Origin: KSNA John Wayne-Orange Co
United States
Destination: KLXV Lake Co
United States
More flights between these airports :: More routes between these airports
Route: FINZZ3 BEALE DEANN GUILT
File this flight plan on PilotEdge
Remarks:
Altitude:
(Current/Filed)
41,000ft
Speed:
(Current/Filed)
480kts
Departed: 22-Feb-21 11:14 AM
Arrived: 22-Feb-21 12:57 PM
Distance/Time
Traveled:
196nm/1:43
Distance/Time
To Go:
Arrived

Flight Plot

Page will automatically refresh every two minutes.

Flight plan parsing failed; only flown route is shown


Map Options




Map Legend


Flown Route
Filed Route
Departure Airport
Arrival Airport
Navaid (VOR, NDB)
Fix

Horizontal Profiles

Position Reports

Time Latitude Longitude Heading Altitude Ground
Speed
22-Feb-21 10:38 33.672376 -117.866906 210 63ft 0kts
22-Feb-21 10:39 33.672376 -117.866906 210 63ft 0kts
22-Feb-21 10:40 33.672376 -117.866906 210 63ft 0kts
22-Feb-21 10:41 33.672376 -117.866906 210 63ft 0kts
22-Feb-21 10:42 33.672376 -117.866906 210 63ft 0kts
22-Feb-21 10:43 33.672376 -117.866906 210 63ft 0kts
22-Feb-21 10:44 33.672376 -117.866906 210 63ft 0kts
22-Feb-21 10:45 33.672376 -117.866906 210 63ft 0kts
22-Feb-21 10:46 33.672376 -117.866906 210 63ft 0kts
22-Feb-21 10:47 33.672376 -117.866906 210 63ft 0kts
22-Feb-21 10:48 33.672376 -117.866906 210 63ft 0kts
22-Feb-21 10:49 33.672376 -117.866906 210 63ft 0kts
22-Feb-21 10:50 33.672376 -117.866906 210 63ft 0kts
22-Feb-21 10:51 33.672376 -117.866906 210 63ft 0kts
22-Feb-21 10:52 33.672376 -117.866906 210 63ft 0kts
22-Feb-21 10:53 33.672376 -117.866906 210 63ft 0kts
22-Feb-21 10:54 33.672376 -117.866906 210 63ft 0kts
22-Feb-21 10:55 33.672376 -117.866906 210 63ft 0kts
22-Feb-21 10:56 33.672376 -117.866906 210 63ft 0kts
22-Feb-21 10:57 33.672376 -117.866906 210 63ft 0kts
22-Feb-21 10:58 33.672376 -117.866906 210 63ft 0kts
22-Feb-21 10:59 33.672376 -117.866906 210 63ft 0kts
22-Feb-21 11:00 33.672376 -117.866906 210 63ft 0kts
22-Feb-21 11:01 33.672376 -117.866906 210 63ft 0kts
22-Feb-21 11:02 33.672376 -117.866906 210 63ft 0kts
22-Feb-21 11:03 33.672376 -117.866906 210 63ft 0kts
22-Feb-21 11:05 33.672376 -117.866906 210 63ft 0kts
22-Feb-21 11:06 33.672376 -117.866906 210 63ft 0kts
22-Feb-21 11:07 33.672376 -117.866906 210 63ft 0kts
22-Feb-21 11:08 33.672376 -117.866906 210 63ft 0kts
22-Feb-21 11:09 33.672667 -117.867754 19 63ft 6kts
22-Feb-21 11:10 33.674850 -117.865999 27 63ft 13kts
22-Feb-21 11:11 33.678101 -117.863940 27 63ft 11kts
22-Feb-21 11:12 33.680566 -117.862911 306 63ft 5kts
22-Feb-21 11:13 33.681342 -117.865192 231 63ft 13kts
22-Feb-21 11:14 33.648746 -117.886004 202 1793ft 212kts
22-Feb-21 11:15 33.579109 -117.900202 198 5975ft 280kts
22-Feb-21 11:16 33.520032 -117.960321 236 7346ft 290kts
22-Feb-21 11:17 33.520643 -118.051867 306 9212ft 297kts
22-Feb-21 11:18 33.584409 -118.112883 350 13196ft 310kts
22-Feb-21 11:19 33.667998 -118.084014 28 15881ft 341kts
22-Feb-21 11:20 33.757396 -118.031621 28 17926ft 372kts
22-Feb-21 11:21 33.854023 -117.975170 29 20683ft 399kts
22-Feb-21 11:22 33.950005 -117.904888 40 23521ft 409kts
22-Feb-21 11:23 34.041767 -117.820680 41 25912ft 421kts
22-Feb-21 11:23 34.113524 -117.741664 53 27591ft 423kts
22-Feb-21 11:25 34.201117 -117.611440 54 29503ft 433kts
22-Feb-21 11:26 34.277791 -117.497213 54 30855ft 440kts
22-Feb-21 11:26 34.342285 -117.400891 54 31770ft 444kts
22-Feb-21 11:28 34.433270 -117.264553 55 32836ft 450kts
22-Feb-21 11:29 34.504538 -117.157914 56 37418ft 368kts
22-Feb-21 11:29 34.558799 -117.076158 55 38659ft 373kts
22-Feb-21 11:31 34.636217 -116.963820 55 40375ft 374kts
22-Feb-21 11:31 34.691648 -116.882883 54 41446ft 376kts
22-Feb-21 11:32 34.761175 -116.780932 54 41444ft 408kts
22-Feb-21 11:33 34.835539 -116.671715 54 41442ft 430kts
22-Feb-21 11:35 34.930359 -116.542152 50 41435ft 448kts
22-Feb-21 11:36 35.015113 -116.429141 49 41428ft 455kts
22-Feb-21 11:36 35.086087 -116.333828 49 41431ft 457kts
22-Feb-21 11:37 35.171294 -116.219004 49 41431ft 458kts
22-Feb-21 11:38 35.256936 -116.103206 49 41430ft 459kts
22-Feb-21 11:39 35.342090 -115.987662 49 41430ft 459kts
22-Feb-21 11:40 35.427704 -115.871119 49 41434ft 459kts
22-Feb-21 11:41 35.512794 -115.754892 49 41451ft 459kts
22-Feb-21 11:42 35.597753 -115.638444 49 41465ft 459kts
22-Feb-21 11:43 35.682735 -115.521594 49 41464ft 459kts
22-Feb-21 11:44 35.767783 -115.404218 49 41463ft 459kts
22-Feb-21 11:45 35.852474 -115.286903 50 41468ft 460kts
22-Feb-21 11:46 35.937300 -115.168989 50 41466ft 460kts
22-Feb-21 11:47 36.021965 -115.050879 49 41445ft 459kts
22-Feb-21 11:48 36.106402 -114.932673 49 41434ft 458kts
22-Feb-21 11:49 36.185407 -114.809959 60 41434ft 456kts
22-Feb-21 11:50 36.237626 -114.667467 66 41432ft 455kts
22-Feb-21 11:51 36.287161 -114.522984 66 41430ft 455kts
22-Feb-21 11:52 36.336602 -114.378809 66 41428ft 455kts
22-Feb-21 11:53 36.385927 -114.234393 67 41431ft 455kts
22-Feb-21 11:54 36.435063 -114.089845 67 41455ft 455kts
22-Feb-21 11:55 36.483909 -113.945456 67 41475ft 455kts
22-Feb-21 11:56 36.532759 -113.800351 67 41474ft 455kts
22-Feb-21 11:57 36.581316 -113.655406 67 41474ft 455kts
22-Feb-21 11:58 36.629821 -113.509905 67 41473ft 455kts
22-Feb-21 11:59 36.678122 -113.364301 67 41462ft 455kts
22-Feb-21 12:00 36.726125 -113.218885 67 41458ft 456kts
22-Feb-21 12:01 36.774056 -113.072957 67 41457ft 456kts
22-Feb-21 12:02 36.821989 -112.926288 67 41456ft 455kts
22-Feb-21 12:03 36.869522 -112.780107 66 41454ft 454kts
22-Feb-21 12:04 36.916595 -112.634615 66 41459ft 453kts
22-Feb-21 12:05 36.963592 -112.488623 66 41461ft 453kts
22-Feb-21 12:06 37.010429 -112.342394 66 41432ft 455kts
22-Feb-21 12:07 37.057392 -112.195053 66 41435ft 458kts
22-Feb-21 12:08 37.104519 -112.046390 66 41439ft 462kts
22-Feb-21 12:09 37.152007 -111.895719 66 41450ft 467kts
22-Feb-21 12:10 37.199704 -111.743638 66 41453ft 470kts
22-Feb-21 12:11 37.254128 -111.594687 60 41450ft 470kts
22-Feb-21 12:12 37.313111 -111.448173 61 41449ft 471kts
22-Feb-21 12:13 37.371060 -111.300158 61 41448ft 472kts
22-Feb-21 12:14 37.428528 -111.152166 61 41448ft 472kts
22-Feb-21 12:15 37.486185 -111.002974 61 41448ft 472kts
22-Feb-21 12:16 37.543953 -110.852781 60 41448ft 472kts
22-Feb-21 12:17 37.600963 -110.703837 60 41448ft 472kts
22-Feb-21 12:18 37.657741 -110.554780 60 41448ft 472kts
22-Feb-21 12:19 37.714369 -110.405388 60 41447ft 472kts
22-Feb-21 12:20 37.770943 -110.255414 61 41459ft 472kts
22-Feb-21 12:21 37.827194 -110.105563 61 41464ft 472kts
22-Feb-21 12:22 37.883904 -109.953734 61 41468ft 472kts
22-Feb-21 12:23 37.939808 -109.803313 61 41472ft 472kts
22-Feb-21 12:24 37.995403 -109.652978 61 41472ft 472kts
22-Feb-21 12:25 38.050919 -109.502105 61 41472ft 472kts
22-Feb-21 12:26 38.106178 -109.351173 61 41474ft 472kts
22-Feb-21 12:27 38.161387 -109.199641 62 41476ft 473kts
22-Feb-21 12:28 38.216598 -109.047388 61 40697ft 481kts
22-Feb-21 12:29 38.269436 -108.900473 60 38088ft 434kts
22-Feb-21 12:30 38.317183 -108.767349 60 35490ft 399kts
22-Feb-21 12:31 38.361583 -108.643255 60 32894ft 375kts
22-Feb-21 12:32 38.403613 -108.525381 60 30294ft 358kts
22-Feb-21 12:33 38.443703 -108.412366 61 27696ft 344kts
22-Feb-21 12:34 38.481803 -108.304476 62 26235ft 322kts
22-Feb-21 12:35 38.522017 -108.190259 62 24982ft 305kts
22-Feb-21 12:36 38.559020 -108.084620 62 24440ft 272kts
22-Feb-21 12:37 38.590121 -107.995560 61 24441ft 240kts
22-Feb-21 12:38 38.621728 -107.905688 62 24459ft 311kts
22-Feb-21 12:39 38.659833 -107.795776 63 24453ft 359kts
22-Feb-21 12:40 38.701873 -107.673953 63 24450ft 389kts
22-Feb-21 12:41 38.746708 -107.543583 63 24448ft 407kts
22-Feb-21 12:42 38.793281 -107.407603 63 24447ft 418kts
22-Feb-21 12:43 38.841054 -107.267447 64 23614ft 409kts
22-Feb-21 12:44 38.884474 -107.139279 64 21218ft 351kts
22-Feb-21 12:45 38.924210 -107.021799 63 19113ft 314kts
22-Feb-21 12:46 38.959701 -106.916529 62 17119ft 301kts
22-Feb-21 12:47 38.994440 -106.813364 63 17052ft 325kts
22-Feb-21 12:48 39.033516 -106.696980 62 17039ft 351kts
22-Feb-21 12:49 39.087451 -106.581988 54 17015ft 363kts
22-Feb-21 12:50 39.118491 -106.464850 82 16980ft 308kts
22-Feb-21 12:51 39.108525 -106.360048 122 14955ft 287kts
22-Feb-21 12:52 39.085599 -106.268927 45 12746ft 250kts
22-Feb-21 12:53 39.138522 -106.289087 316 11740ft 229kts
22-Feb-21 12:54 39.190704 -106.310095 347 10387ft 138kts
22-Feb-21 12:55 39.222574 -106.317098 350 9930ft 45kts
22-Feb-21 12:56 39.224963 -106.316227 80 9938ft 0kts
22-Feb-21 13:05 36.080910 -115.170584 89 2172ft 0kts
22-Feb-21 13:06 36.080910 -115.170584 89 2172ft 0kts

Navigation Log

Ident Type
Flight plan parsing failed, navigation log unavailable